Time;durP1;ratioP1;P1;durP2;ratioP2;P2;SDS_P1;SDS_P2;PMS_P1;PMS_P2;Temp;Humidity;BMP_temperature;BMP_pressure;BME280_temperature;BME280_humidity;BME280_pressure;Samples;Min_cycle;Max_cycle;Signal;HPM_P1;HPM_P2
2022/12/07 00:01:08;;;;;;;10.90;5.50;;;;;;;;;;5063420;28;20519;-71
2022/12/07 00:03:34;;;;;;;8.23;5.60;;;;;;;;;;5057212;28;20052;-71
2022/12/07 00:06:01;;;;;;;13.52;6.25;;;;;;;;;;5042799;28;20053;-71
2022/12/07 00:08:28;;;;;;;7.65;5.75;;;;;;;;;;5046166;28;20048;-71
2022/12/07 00:10:54;;;;;;;11.55;5.50;;;;;;;;;;5056573;28;20054;-71
2022/12/07 00:13:21;;;;;;;13.32;6.28;;;;;;;;;;5043751;28;20060;-71
2022/12/07 00:15:47;;;;;;;10.15;5.60;;;;;;;;;;5042627;28;20053;-71
2022/12/07 00:18:13;;;;;;;10.57;6.10;;;;;;;;;;5057310;28;20111;-71
2022/12/07 00:20:39;;;;;;;12.68;6.32;;;;;;;;;;5063926;28;20049;-71
2022/12/07 00:23:06;;;;;;;8.70;5.75;;;;;;;;;;5069675;28;20057;-71
2022/12/07 00:25:32;;;;;;;12.90;6.03;;;;;;;;;;5084051;28;20044;-71
2022/12/07 00:27:59;;;;;;;7.18;5.72;;;;;;;;;;5060948;28;20057;-71
2022/12/07 00:30:25;;;;;;;11.63;6.03;;;;;;;;;;5063308;28;20049;-71
2022/12/07 00:32:51;;;;;;;10.40;5.57;;;;;;;;;;5057664;28;20049;-71
2022/12/07 00:35:18;;;;;;;8.90;5.72;;;;;;;;;;5062128;28;20041;-70
2022/12/07 00:37:44;;;;;;;6.18;5.10;;;;;;;;;;5065052;28;20509;-71
2022/12/07 00:40:10;;;;;;;8.40;5.20;;;;;;;;;;5062957;28;20056;-71
2022/12/07 00:42:37;;;;;;;6.22;5.15;;;;;;;;;;5061304;28;20049;-71
2022/12/07 00:45:04;;;;;;;11.05;5.20;;;;;;;;;;5048528;28;20049;-71
2022/12/07 00:47:30;;;;;;;12.00;5.45;;;;;;;;;;5048857;28;20132;-71
2022/12/07 00:49:56;;;;;;;9.38;4.88;;;;;;;;;;5042811;28;20053;-71
2022/12/07 00:52:23;;;;;;;8.63;5.00;;;;;;;;;;5052947;28;20102;-71
2022/12/07 00:54:49;;;;;;;15.35;5.20;;;;;;;;;;5059842;28;20057;-71
2022/12/07 00:57:15;;;;;;;8.18;4.88;;;;;;;;;;5049831;28;20061;-71
2022/12/07 00:59:42;;;;;;;12.45;5.20;;;;;;;;;;5050288;28;20808;-72
2022/12/07 01:02:08;;;;;;;7.75;4.97;;;;;;;;;;5045062;28;20045;-71
2022/12/07 01:04:35;;;;;;;5.25;3.75;;;;;;;;;;5065255;28;20056;-71
2022/12/07 01:07:01;;;;;;;8.77;4.18;;;;;;;;;;5053933;28;20511;-71
2022/12/07 01:09:27;;;;;;;9.18;5.20;;;;;;;;;;5053043;28;20516;-71
2022/12/07 01:11:53;;;;;;;6.78;4.28;;;;;;;;;;5049529;28;20048;-71
2022/12/07 01:14:20;;;;;;;8.48;4.47;;;;;;;;;;5058327;28;20551;-71
2022/12/07 01:16:46;;;;;;;11.63;4.43;;;;;;;;;;5051826;28;20488;-70
2022/12/07 01:19:13;;;;;;;6.78;3.88;;;;;;;;;;5061276;28;20063;-70
2022/12/07 01:21:39;;;;;;;5.55;3.78;;;;;;;;;;5065019;28;20122;-71
2022/12/07 01:24:06;;;;;;;9.93;4.13;;;;;;;;;;5068916;28;20056;-71
2022/12/07 01:26:33;;;;;;;12.43;4.22;;;;;;;;;;5054280;28;20057;-71
2022/12/07 01:29:00;;;;;;;9.93;4.25;;;;;;;;;;5053776;28;20053;-71
2022/12/07 01:31:27;;;;;;;8.82;4.40;;;;;;;;;;5042268;28;20570;-71
2022/12/07 01:33:55;;;;;;;5.60;3.35;;;;;;;;;;5045257;28;21219;-71
2022/12/07 01:36:28;;;;;;;6.75;3.83;;;;;;;;;;5055304;28;20496;-71
2022/12/07 01:38:56;;;;;;;10.57;3.88;;;;;;;;;;5041829;28;20709;-70
2022/12/07 01:41:24;;;;;;;11.38;3.58;;;;;;;;;;5042935;28;20189;-71
2022/12/07 01:44:09;;;;;;;7.95;4.00;;;;;;;;;;5060776;28;20053;-71
2022/12/07 01:46:35;;;;;;;9.80;3.65;;;;;;;;;;5046697;28;20522;-71
2022/12/07 01:49:04;;;;;;;5.78;3.55;;;;;;;;;;5058179;28;20049;-71
2022/12/07 01:51:30;;;;;;;9.82;3.53;;;;;;;;;;5062691;28;20053;-71
2022/12/07 01:53:56;;;;;;;12.70;3.75;;;;;;;;;;5048831;28;20128;-71
2022/12/07 01:56:24;;;;;;;8.55;3.75;;;;;;;;;;5042119;28;20530;-71
2022/12/07 01:58:51;;;;;;;4.15;2.92;;;;;;;;;;5053277;28;20088;-70
2022/12/07 02:01:17;;;;;;;8.25;3.08;;;;;;;;;;5062246;28;20056;-71
2022/12/07 02:03:44;;;;;;;4.88;2.85;;;;;;;;;;5062424;28;20517;-71
2022/12/07 02:06:15;;;;;;;7.80;2.90;;;;;;;;;;5062347;28;20427;-71
2022/12/07 02:08:42;;;;;;;8.93;2.83;;;;;;;;;;5063628;28;20614;-71
2022/12/07 02:11:09;;;;;;;7.55;2.53;;;;;;;;;;5064512;28;20052;-71
2022/12/07 02:13:37;;;;;;;5.82;2.80;;;;;;;;;;5064756;28;20149;-70
2022/12/07 02:16:13;;;;;;;11.68;3.90;;;;;;;;;;5064851;28;20099;-70
2022/12/07 02:18:39;;;;;;;8.05;3.17;;;;;;;;;;5052670;28;20136;-70
2022/12/07 02:21:08;;;;;;;4.97;2.60;;;;;;;;;;5045080;28;20496;-70
2022/12/07 02:23:41;;;;;;;5.25;2.65;;;;;;;;;;5065329;28;20427;-70
2022/12/07 02:26:26;;;;;;;10.52;2.88;;;;;;;;;;5064304;28;20522;-70
2022/12/07 02:29:06;;;;;;;3.72;2.38;;;;;;;;;;5065457;28;20454;-70
2022/12/07 02:31:33;;;;;;;6.97;2.50;;;;;;;;;;5064982;28;20057;-69
2022/12/07 02:34:09;;;;;;;4.80;2.42;;;;;;;;;;5061042;28;20519;-70
2022/12/07 02:36:39;;;;;;;8.30;2.75;;;;;;;;;;5043465;28;20057;-70
2022/12/07 02:39:17;;;;;;;8.63;2.15;;;;;;;;;;5050247;28;20584;-70
2022/12/07 02:41:46;;;;;;;3.45;1.73;;;;;;;;;;5065301;28;20140;-70
2022/12/07 02:44:14;;;;;;;8.95;2.20;;;;;;;;;;5064972;28;20060;-70
2022/12/07 02:46:42;;;;;;;9.77;2.35;;;;;;;;;;5054283;28;20049;-69
2022/12/07 02:49:09;;;;;;;10.02;2.85;;;;;;;;;;5065091;28;20102;-70
2022/12/07 02:51:39;;;;;;;6.78;2.90;;;;;;;;;;5064936;28;20485;-70
2022/12/07 02:54:13;;;;;;;10.60;2.65;;;;;;;;;;5063348;28;20056;-70
2022/12/07 02:56:45;;;;;;;7.15;2.85;;;;;;;;;;5064722;28;20476;-70
2022/12/07 02:59:24;;;;;;;7.32;2.80;;;;;;;;;;5064058;28;20826;-70
2022/12/07 03:02:06;;;;;;;9.10;3.08;;;;;;;;;;5062712;28;20103;-69
2022/12/07 03:04:33;;;;;;;11.48;3.47;;;;;;;;;;5064161;28;20053;-70
2022/12/07 03:07:01;;;;;;;6.35;2.88;;;;;;;;;;5062164;28;20053;-70
2022/12/07 03:09:34;;;;;;;4.35;2.47;;;;;;;;;;5064641;28;20045;-70
2022/12/07 03:12:21;;;;;;;5.65;2.70;;;;;;;;;;5063412;28;20049;-70
2022/12/07 03:14:52;;;;;;;7.15;2.88;;;;;;;;;;5062575;28;20049;-70
2022/12/07 03:17:21;;;;;;;9.13;3.08;;;;;;;;;;5063768;28;21002;-70
2022/12/07 03:19:48;;;;;;;4.72;1.83;;;;;;;;;;5060971;28;20115;-70
2022/12/07 03:22:15;;;;;;;4.40;2.60;;;;;;;;;;5063077;28;20061;-69
2022/12/07 03:24:41;;;;;;;5.95;1.98;;;;;;;;;;5063355;28;20045;-70
2022/12/07 03:27:15;;;;;;;3.53;1.95;;;;;;;;;;5064535;28;20056;-69
2022/12/07 03:29:44;;;;;;;6.90;1.92;;;;;;;;;;5061876;28;20052;-70
2022/12/07 03:32:37;;;;;;;8.20;2.63;;;;;;;;;;5054417;28;20049;-70
2022/12/07 03:35:16;;;;;;;5.15;2.08;;;;;;;;;;5061018;28;20522;-70
2022/12/07 03:37:49;;;;;;;7.13;2.55;;;;;;;;;;5063504;28;20049;-69
2022/12/07 03:40:34;;;;;;;5.90;2.17;;;;;;;;;;5062742;28;20057;-69
2022/12/07 03:43:01;;;;;;;6.87;2.10;;;;;;;;;;5059732;28;20061;-70
2022/12/07 03:45:32;;;;;;;8.00;2.33;;;;;;;;;;5063353;28;20148;-70
2022/12/07 03:48:10;;;;;;;10.43;2.20;;;;;;;;;;5058260;28;20057;-70
2022/12/07 03:50:47;;;;;;;7.07;2.72;;;;;;;;;;5062697;28;20545;-70
2022/12/07 03:53:18;;;;;;;8.25;2.17;;;;;;;;;;5061959;28;20055;-70
2022/12/07 03:55:45;;;;;;;4.80;2.33;;;;;;;;;;5064558;28;20053;-70
2022/12/07 03:58:20;;;;;;;8.00;2.38;;;;;;;;;;5063357;28;20522;-70
2022/12/07 04:00:46;;;;;;;8.05;2.20;;;;;;;;;;5061421;28;20080;-69
2022/12/07 04:03:13;;;;;;;12.15;2.72;;;;;;;;;;5062761;28;20053;-71
2022/12/07 04:05:40;;;;;;;4.47;2.40;;;;;;;;;;5057664;28;20053;-72
2022/12/07 04:08:07;;;;;;;7.72;1.98;;;;;;;;;;5043683;28;20103;-71
2022/12/07 04:10:33;;;;;;;7.90;2.08;;;;;;;;;;5079606;28;20057;-71
2022/12/07 04:12:59;;;;;;;7.65;2.25;;;;;;;;;;5045861;28;20510;-71
2022/12/07 04:15:26;;;;;;;3.67;1.70;;;;;;;;;;5045459;28;20530;-71
2022/12/07 04:17:53;;;;;;;11.38;2.00;;;;;;;;;;5061824;28;20385;-71
2022/12/07 04:20:20;;;;;;;5.95;1.88;;;;;;;;;;5052569;28;20056;-71
2022/12/07 04:22:46;;;;;;;5.28;1.70;;;;;;;;;;5054740;28;20502;-71
2022/12/07 04:25:13;;;;;;;14.60;2.85;;;;;;;;;;5058727;28;20056;-71
2022/12/07 04:27:39;;;;;;;8.43;2.53;;;;;;;;;;5044320;28;20064;-70
2022/12/07 04:30:06;;;;;;;12.10;2.20;;;;;;;;;;5061110;28;20053;-70
2022/12/07 04:32:32;;;;;;;10.15;2.53;;;;;;;;;;5061766;28;20135;-70
2022/12/07 04:34:59;;;;;;;5.78;2.13;;;;;;;;;;5061836;28;20092;-70
2022/12/07 04:37:25;;;;;;;6.55;1.55;;;;;;;;;;5063799;28;20095;-71
2022/12/07 04:39:51;;;;;;;2.97;1.50;;;;;;;;;;5061699;28;20053;-70
2022/12/07 04:42:18;;;;;;;6.57;1.40;;;;;;;;;;5062116;28;20053;-70
2022/12/07 04:44:44;;;;;;;10.20;1.85;;;;;;;;;;5043798;28;20058;-70
2022/12/07 04:47:11;;;;;;;5.93;1.67;;;;;;;;;;5042812;28;20053;-69
2022/12/07 04:49:38;;;;;;;1.58;1.15;;;;;;;;;;5060714;28;20063;-70
2022/12/07 04:52:04;;;;;;;8.43;2.67;;;;;;;;;;5059235;28;20805;-70
2022/12/07 04:54:30;;;;;;;3.15;1.48;;;;;;;;;;5063524;28;20478;-68
2022/12/07 04:56:57;;;;;;;9.00;2.03;;;;;;;;;;5062414;28;20140;-68
2022/12/07 04:59:23;;;;;;;12.60;4.18;;;;;;;;;;5062355;28;20064;-69
2022/12/07 05:01:49;;;;;;;10.60;5.18;;;;;;;;;;5061617;28;20048;-69
2022/12/07 05:04:17;;;;;;;6.88;3.50;;;;;;;;;;5048022;28;20067;-68
2022/12/07 05:06:44;;;;;;;4.13;1.80;;;;;;;;;;5061468;28;20099;-71
2022/12/07 05:09:10;;;;;;;2.45;1.38;;;;;;;;;;5062210;28;20107;-69
2022/12/07 05:11:40;;;;;;;2.78;2.03;;;;;;;;;;5062555;28;20059;-69
2022/12/07 05:14:07;;;;;;;13.05;2.90;;;;;;;;;;5049985;28;20053;-69
2022/12/07 05:16:33;;;;;;;1.55;1.20;;;;;;;;;;5045281;28;20049;-68
2022/12/07 05:19:00;;;;;;;3.42;1.40;;;;;;;;;;5060868;28;20570;-69
2022/12/07 05:21:26;;;;;;;2.85;1.33;;;;;;;;;;5067296;28;20060;-69
2022/12/07 05:23:55;;;;;;;2.35;1.27;;;;;;;;;;5060604;28;20057;-68
2022/12/07 05:26:21;;;;;;;8.60;1.98;;;;;;;;;;5062423;28;20051;-68
2022/12/07 05:28:52;;;;;;;7.65;1.27;;;;;;;;;;5057534;28;20083;-68
2022/12/07 05:31:18;;;;;;;5.03;1.45;;;;;;;;;;5049393;28;20063;-68
2022/12/07 05:33:45;;;;;;;5.57;1.60;;;;;;;;;;5061463;28;20566;-68
2022/12/07 05:36:11;;;;;;;7.75;1.45;;;;;;;;;;5061698;28;20049;-69
2022/12/07 05:38:38;;;;;;;5.13;1.35;;;;;;;;;;5054306;28;20048;-70
2022/12/07 05:41:05;;;;;;;4.22;1.38;;;;;;;;;;5060795;28;20119;-68
2022/12/07 05:43:31;;;;;;;10.20;1.65;;;;;;;;;;5064655;28;20042;-69
2022/12/07 05:45:58;;;;;;;5.30;1.27;;;;;;;;;;5069007;28;20063;-70
2022/12/07 05:48:25;;;;;;;4.15;1.10;;;;;;;;;;5070437;28;20538;-68
2022/12/07 05:50:51;;;;;;;6.78;1.73;;;;;;;;;;5061780;28;20109;-69
2022/12/07 05:53:18;;;;;;;2.20;0.93;;;;;;;;;;5054228;28;20053;-68
2022/12/07 05:55:48;;;;;;;9.55;2.40;;;;;;;;;;5061285;28;20045;-69
2022/12/07 06:01:13;;;;;;;6.65;2.00;;;;;;;;;;5023724;28;20054;-68
2022/12/07 06:03:40;;;;;;;3.45;1.60;;;;;;;;;;5037989;28;20056;-69
2022/12/07 06:06:06;;;;;;;6.10;2.05;;;;;;;;;;5042676;28;20049;-70
2022/12/07 06:08:33;;;;;;;4.03;1.33;;;;;;;;;;5040808;28;20049;-68
2022/12/07 06:13:44;;;;;;;4.65;1.35;;;;;;;;;;5040592;28;20049;-69
2022/12/07 06:16:12;;;;;;;5.72;1.58;;;;;;;;;;5026307;28;20597;-68
2022/12/07 06:18:39;;;;;;;5.55;1.40;;;;;;;;;;5039985;28;20138;-69
2022/12/07 06:21:05;;;;;;;8.45;1.77;;;;;;;;;;5036699;28;20050;-68
2022/12/07 06:23:32;;;;;;;3.88;1.40;;;;;;;;;;5041689;28;20042;-68
2022/12/07 06:25:58;;;;;;;5.25;1.20;;;;;;;;;;5026589;28;20055;-68
2022/12/07 06:28:24;;;;;;;10.70;1.90;;;;;;;;;;5038254;28;20061;-68
2022/12/07 06:31:01;;;;;;;7.68;1.83;;;;;;;;;;5040774;28;20064;-69
2022/12/07 06:33:27;;;;;;;4.35;1.48;;;;;;;;;;5041740;28;20614;-69
2022/12/07 06:35:54;;;;;;;3.60;1.70;;;;;;;;;;5041854;28;20081;-68
2022/12/07 06:38:21;;;;;;;3.80;2.03;;;;;;;;;;5047356;28;20057;-68
2022/12/07 06:40:48;;;;;;;5.40;2.10;;;;;;;;;;5054739;28;20052;-72
2022/12/07 06:43:15;;;;;;;8.02;2.10;;;;;;;;;;5061576;28;20049;-71
2022/12/07 06:45:42;;;;;;;3.92;1.98;;;;;;;;;;5064459;28;20057;-70
2022/12/07 06:48:08;;;;;;;5.57;2.45;;;;;;;;;;5062139;28;20506;-71
2022/12/07 06:50:35;;;;;;;4.18;2.15;;;;;;;;;;5054053;28;20060;-71
2022/12/07 06:53:01;;;;;;;9.80;2.28;;;;;;;;;;5059605;28;20374;-67
2022/12/07 06:55:27;;;;;;;9.18;2.70;;;;;;;;;;5060684;28;20134;-70
2022/12/07 06:57:53;;;;;;;4.97;2.25;;;;;;;;;;5069251;28;20060;-69
2022/12/07 07:00:20;;;;;;;3.92;1.55;;;;;;;;;;5071438;28;20053;-69
2022/12/07 07:02:47;;;;;;;12.52;2.05;;;;;;;;;;5064737;28;20089;-70
2022/12/07 07:05:15;;;;;;;6.00;1.95;;;;;;;;;;5071999;28;20049;-69
2022/12/07 07:07:41;;;;;;;3.20;1.50;;;;;;;;;;5068829;28;20047;-69
2022/12/07 07:10:28;;;;;;;5.47;1.83;;;;;;;;;;5050205;28;20049;-68
2022/12/07 07:12:54;;;;;;;7.40;1.65;;;;;;;;;;5059731;28;20465;-69
2022/12/07 07:15:23;;;;;;;2.53;1.40;;;;;;;;;;5070420;28;20045;-69
2022/12/07 07:17:49;;;;;;;8.80;1.58;;;;;;;;;;5048405;28;20765;-69
2022/12/07 07:20:15;;;;;;;8.88;2.53;;;;;;;;;;5065733;28;20092;-70
2022/12/07 07:22:42;;;;;;;5.65;2.35;;;;;;;;;;5054375;28;20542;-70
2022/12/07 07:25:08;;;;;;;12.13;2.15;;;;;;;;;;5072874;28;20056;-71
2022/12/07 07:27:34;;;;;;;13.55;2.25;;;;;;;;;;5061286;28;20148;-70
2022/12/07 07:30:01;;;;;;;4.55;2.05;;;;;;;;;;5072804;28;20336;-69
2022/12/07 07:32:28;;;;;;;10.23;2.20;;;;;;;;;;5060911;28;20053;-69
2022/12/07 07:34:54;;;;;;;6.53;2.22;;;;;;;;;;5058499;28;20049;-69
2022/12/07 07:37:20;;;;;;;7.72;2.33;;;;;;;;;;5049786;28;20049;-69
2022/12/07 07:39:47;;;;;;;8.60;1.73;;;;;;;;;;5059554;28;20057;-70
2022/12/07 07:42:14;;;;;;;11.73;2.83;;;;;;;;;;5049606;28;20646;-70
2022/12/07 07:44:40;;;;;;;12.60;2.50;;;;;;;;;;5065733;28;20055;-70
2022/12/07 07:47:07;;;;;;;4.80;2.75;;;;;;;;;;5057355;28;20064;-68
2022/12/07 07:49:33;;;;;;;6.13;2.50;;;;;;;;;;5062086;28;20045;-69
2022/12/07 07:52:00;;;;;;;6.03;2.83;;;;;;;;;;5058915;28;20059;-69
2022/12/07 07:54:26;;;;;;;11.52;3.05;;;;;;;;;;5062383;28;20061;-69
2022/12/07 07:56:53;;;;;;;11.07;2.35;;;;;;;;;;5062718;28;20053;-69
2022/12/07 07:59:19;;;;;;;5.60;2.10;;;;;;;;;;5050202;28;20057;-69
2022/12/07 08:01:45;;;;;;;7.30;2.50;;;;;;;;;;5054254;28;20049;-69
2022/12/07 08:04:12;;;;;;;10.50;2.50;;;;;;;;;;5051822;28;20057;-69
2022/12/07 08:06:38;;;;;;;14.27;4.25;;;;;;;;;;5069947;28;20144;-69
2022/12/07 08:09:06;;;;;;;5.65;2.28;;;;;;;;;;5079040;28;20048;-70
2022/12/07 08:11:32;;;;;;;13.63;2.85;;;;;;;;;;5060450;28;20053;-69
2022/12/07 08:13:59;;;;;;;8.75;2.55;;;;;;;;;;5068232;28;20052;-69
2022/12/07 08:16:25;;;;;;;8.65;2.78;;;;;;;;;;5063052;28;20557;-69
2022/12/07 08:18:51;;;;;;;6.88;2.15;;;;;;;;;;5062761;28;20526;-69
2022/12/07 08:21:18;;;;;;;5.78;2.33;;;;;;;;;;5070541;28;20048;-70
2022/12/07 08:23:44;;;;;;;7.60;2.47;;;;;;;;;;5083035;28;20853;-69
2022/12/07 08:26:13;;;;;;;6.57;2.60;;;;;;;;;;5067065;28;20056;-69
2022/12/07 08:28:39;;;;;;;9.40;2.03;;;;;;;;;;5053184;28;20051;-70
2022/12/07 08:31:08;;;;;;;11.85;2.28;;;;;;;;;;5069857;28;20057;-68
2022/12/07 08:33:35;;;;;;;10.15;2.58;;;;;;;;;;5061907;28;20053;-69
2022/12/07 08:36:05;;;;;;;8.63;2.83;;;;;;;;;;5062990;28;20136;-70
2022/12/07 08:38:33;;;;;;;6.30;2.10;;;;;;;;;;5072436;28;20507;-69
2022/12/07 08:40:59;;;;;;;7.78;2.17;;;;;;;;;;5083270;28;20053;-69
2022/12/07 08:43:26;;;;;;;6.90;2.75;;;;;;;;;;5069093;28;20052;-69
2022/12/07 08:46:12;;;;;;;11.05;3.10;;;;;;;;;;5071697;28;20107;-69
2022/12/07 08:48:41;;;;;;;3.20;1.52;;;;;;;;;;5066606;28;20535;-69
2022/12/07 08:51:08;;;;;;;7.28;2.08;;;;;;;;;;5057035;28;20049;-69
2022/12/07 08:53:35;;;;;;;8.80;1.63;;;;;;;;;;5059198;28;20053;-69
2022/12/07 08:56:01;;;;;;;7.53;2.20;;;;;;;;;;5055398;28;20071;-69
2022/12/07 08:58:27;;;;;;;4.15;1.70;;;;;;;;;;5065864;28;20060;-69
2022/12/07 09:00:54;;;;;;;8.70;3.05;;;;;;;;;;5081304;28;20052;-68
2022/12/07 09:03:20;;;;;;;6.43;2.55;;;;;;;;;;5068722;28;20544;-68
2022/12/07 09:05:46;;;;;;;6.72;2.67;;;;;;;;;;5072954;28;20064;-68
2022/12/07 09:08:13;;;;;;;4.25;2.20;;;;;;;;;;5062015;28;20943;-69
2022/12/07 09:10:39;;;;;;;6.35;2.55;;;;;;;;;;5065140;28;20484;-68
2022/12/07 09:13:06;;;;;;;5.63;2.28;;;;;;;;;;5069138;28;20053;-70
2022/12/07 09:15:32;;;;;;;6.35;2.03;;;;;;;;;;5069167;28;20961;-70
2022/12/07 09:17:58;;;;;;;8.10;2.50;;;;;;;;;;5070492;28;20044;-70
2022/12/07 09:20:25;;;;;;;7.55;2.00;;;;;;;;;;5060288;28;20057;-69
2022/12/07 09:22:53;;;;;;;3.60;1.90;;;;;;;;;;5056397;28;20150;-70
2022/12/07 09:25:20;;;;;;;5.50;2.13;;;;;;;;;;5048577;28;20096;-69
2022/12/07 09:27:46;;;;;;;6.10;2.83;;;;;;;;;;5059315;28;20107;-72
2022/12/07 09:30:13;;;;;;;8.90;2.33;;;;;;;;;;5062035;28;20045;-71
2022/12/07 09:32:39;;;;;;;5.40;2.30;;;;;;;;;;5061865;28;20052;-71
2022/12/07 09:35:06;;;;;;;10.75;2.45;;;;;;;;;;5051516;28;20558;-71
2022/12/07 09:37:35;;;;;;;8.48;2.92;;;;;;;;;;5054655;28;20061;-69
2022/12/07 09:40:03;;;;;;;10.63;2.30;;;;;;;;;;5062021;28;20053;-70
2022/12/07 09:42:39;;;;;;;10.18;2.58;;;;;;;;;;5063429;28;20052;-71
2022/12/07 09:45:12;;;;;;;8.68;1.92;;;;;;;;;;5077786;28;20143;-70
2022/12/07 09:47:38;;;;;;;7.60;2.42;;;;;;;;;;5078198;28;20128;-69
2022/12/07 09:50:07;;;;;;;8.57;1.80;;;;;;;;;;5061633;28;20048;-68
2022/12/07 09:52:33;;;;;;;6.25;1.88;;;;;;;;;;5061390;28;20049;-69
2022/12/07 09:55:09;;;;;;;8.20;2.58;;;;;;;;;;5055392;28;20124;-70
2022/12/07 09:57:36;;;;;;;4.93;2.30;;;;;;;;;;5044608;28;20586;-69
2022/12/07 10:00:06;;;;;;;4.22;2.17;;;;;;;;;;5068599;28;20057;-70
2022/12/07 10:02:41;;;;;;;3.35;2.13;;;;;;;;;;5063648;28;20527;-70
2022/12/07 10:05:20;;;;;;;6.15;2.97;;;;;;;;;;5057135;28;20495;-68
2022/12/07 10:07:49;;;;;;;5.05;2.00;;;;;;;;;;5062840;28;20148;-69
2022/12/07 10:10:24;;;;;;;4.35;1.90;;;;;;;;;;5061869;28;20057;-69
2022/12/07 10:12:54;;;;;;;7.53;2.20;;;;;;;;;;5058496;28;20786;-69
2022/12/07 10:15:20;;;;;;;7.18;2.05;;;;;;;;;;5068583;28;20057;-69
2022/12/07 10:17:48;;;;;;;2.67;1.60;;;;;;;;;;5076269;28;20147;-70
2022/12/07 10:20:17;;;;;;;10.05;2.60;;;;;;;;;;5072697;28;20563;-69
2022/12/07 10:23:00;;;;;;;6.68;2.20;;;;;;;;;;5067880;28;20107;-69
2022/12/07 10:25:29;;;;;;;5.10;1.50;;;;;;;;;;5056711;28;20660;-69
2022/12/07 10:28:07;;;;;;;4.03;1.88;;;;;;;;;;5050653;28;20051;-68
2022/12/07 10:30:56;;;;;;;7.32;1.67;;;;;;;;;;5081112;28;20545;-70
2022/12/07 10:33:33;;;;;;;3.28;1.20;;;;;;;;;;5063691;28;20049;-69
2022/12/07 10:36:00;;;;;;;6.88;1.50;;;;;;;;;;5070130;28;20605;-69
2022/12/07 10:38:27;;;;;;;5.13;1.60;;;;;;;;;;5064780;28;20049;-69
2022/12/07 10:41:04;;;;;;;6.40;1.63;;;;;;;;;;5065831;28;20056;-68
2022/12/07 10:43:32;;;;;;;4.57;1.50;;;;;;;;;;5082942;28;20407;-67
2022/12/07 10:46:13;;;;;;;2.85;1.77;;;;;;;;;;5085092;28;20147;-69
2022/12/07 10:48:49;;;;;;;17.15;1.80;;;;;;;;;;5079313;28;20057;-68
2022/12/07 10:51:27;;;;;;;10.82;1.98;;;;;;;;;;5085230;28;20048;-67
2022/12/07 10:54:12;;;;;;;6.28;1.70;;;;;;;;;;5063567;28;20193;-67
2022/12/07 10:56:39;;;;;;;3.88;1.63;;;;;;;;;;5071612;28;20056;-68
2022/12/07 10:59:05;;;;;;;4.55;1.73;;;;;;;;;;5061742;28;20056;-68
2022/12/07 11:01:33;;;;;;;1.75;1.23;;;;;;;;;;5059782;28;20794;-68
2022/12/07 11:04:18;;;;;;;4.55;1.70;;;;;;;;;;5078004;28;20053;-69
2022/12/07 11:06:44;;;;;;;7.78;2.10;;;;;;;;;;5077134;28;20473;-68
2022/12/07 11:09:30;;;;;;;2.50;1.48;;;;;;;;;;5057949;28;20060;-69
2022/12/07 11:12:19;;;;;;;3.95;1.30;;;;;;;;;;5051292;28;20057;-69
2022/12/07 11:14:55;;;;;;;3.92;1.50;;;;;;;;;;5062163;28;20175;-70
2022/12/07 11:17:21;;;;;;;;;;;;;;;;;;5064702;28;20467;-68
2022/12/07 11:20:12;;;;;;;5.22;1.88;;;;;;;;;;5062779;28;45290;-69
2022/12/07 11:22:55;;;;;;;6.07;1.88;;;;;;;;;;5065102;28;20515;-69
2022/12/07 11:25:21;;;;;;;8.98;2.20;;;;;;;;;;5044111;28;20056;-69
2022/12/07 11:28:13;;;;;;;5.07;1.75;;;;;;;;;;5048440;28;20524;-69
2022/12/07 11:31:15;;;;;;;6.88;1.88;;;;;;;;;;5080902;28;20052;-68
2022/12/07 11:34:08;;;;;;;20.67;2.92;;;;;;;;;;4999761;28;20153;-69
2022/12/07 11:36:37;;;;;;;5.78;2.05;;;;;;;;;;5003099;28;20108;-69
2022/12/07 11:39:11;;;;;;;3.97;1.95;;;;;;;;;;5020283;28;20563;-69
2022/12/07 11:41:39;;;;;;;6.85;1.63;;;;;;;;;;5001241;28;20062;-68
2022/12/07 11:44:21;;;;;;;6.47;2.05;;;;;;;;;;4989074;28;20141;-70
2022/12/07 11:47:07;;;;;;;4.43;1.45;;;;;;;;;;4974690;28;20051;-69
2022/12/07 11:49:44;;;;;;;7.88;1.58;;;;;;;;;;5006314;28;20116;-67
2022/12/07 11:52:17;;;;;;;5.82;1.70;;;;;;;;;;4990927;28;20537;-68
2022/12/07 11:54:44;;;;;;;4.32;1.65;;;;;;;;;;4993061;28;20053;-69
2022/12/07 11:57:24;;;;;;;4.95;1.58;;;;;;;;;;4990140;28;20166;-69
2022/12/07 11:59:52;;;;;;;5.30;1.77;;;;;;;;;;4985704;28;20093;-69
2022/12/07 12:02:23;;;;;;;5.50;1.67;;;;;;;;;;5013070;28;20132;-69
2022/12/07 12:05:13;;;;;;;5.80;2.05;;;;;;;;;;5004704;28;20109;-70
2022/12/07 12:07:40;;;;;;;5.63;1.95;;;;;;;;;;5027382;28;20044;-70
2022/12/07 12:10:47;;;;;;;4.03;1.50;;;;;;;;;;5062159;28;20160;-69
2022/12/07 12:13:23;;;;;;;6.60;1.35;;;;;;;;;;5059383;28;20053;-69
2022/12/07 12:16:09;;;;;;;7.63;1.77;;;;;;;;;;5063891;28;20052;-69
2022/12/07 12:18:51;;;;;;;3.83;1.45;;;;;;;;;;5067521;28;20073;-69
2022/12/07 12:21:19;;;;;;;7.35;1.52;;;;;;;;;;5065303;28;20136;-69
2022/12/07 12:23:50;;;;;;;6.80;2.60;;;;;;;;;;5080548;28;20071;-70
2022/12/07 12:26:19;;;;;;;5.95;1.73;;;;;;;;;;5077331;28;20059;-70
2022/12/07 12:28:51;;;;;;;7.05;1.58;;;;;;;;;;5061005;28;20049;-68
2022/12/07 12:31:21;;;;;;;2.30;0.95;;;;;;;;;;5052875;28;20508;-69
2022/12/07 12:33:52;;;;;;;6.70;1.35;;;;;;;;;;5050093;28;20499;-69
2022/12/07 12:36:43;;;;;;;7.25;1.27;;;;;;;;;;5060079;28;20053;-69
2022/12/07 12:39:14;;;;;;;4.53;1.17;;;;;;;;;;5069015;28;20059;-68
2022/12/07 12:44:19;;;;;;;4.07;0.93;;;;;;;;;;5069574;28;20045;-68
2022/12/07 12:46:45;;;;;;;3.80;1.45;;;;;;;;;;5074029;28;20056;-70
2022/12/07 12:49:19;;;;;;;6.40;1.33;;;;;;;;;;5061472;28;20058;-68
2022/12/07 12:51:55;;;;;;;6.43;1.65;;;;;;;;;;5072157;28;20056;-68
2022/12/07 12:54:32;;;;;;;2.80;1.38;;;;;;;;;;5062668;28;20076;-67
2022/12/07 12:56:58;;;;;;;1.48;0.70;;;;;;;;;;5069257;28;20072;-67
2022/12/07 12:59:27;;;;;;;2.80;0.80;;;;;;;;;;5066495;28;20064;-69
2022/12/07 13:02:12;;;;;;;2.60;0.55;;;;;;;;;;5059925;28;20049;-70
2022/12/07 13:04:51;;;;;;;2.55;1.00;;;;;;;;;;5042923;28;20080;-70
2022/12/07 13:07:36;;;;;;;2.13;0.70;;;;;;;;;;5077199;28;20057;-71
2022/12/07 13:10:02;;;;;;;3.10;0.73;;;;;;;;;;5082773;28;20056;-71
2022/12/07 13:12:29;;;;;;;2.47;0.60;;;;;;;;;;5074983;28;20153;-70
2022/12/07 13:14:57;;;;;;;1.55;0.40;;;;;;;;;;5081968;28;20055;-71
2022/12/07 13:17:32;;;;;;;1.85;0.35;;;;;;;;;;5067155;28;20202;-70
2022/12/07 13:19:59;;;;;;;;;;;;;;;;;;5079331;28;20395;-67
2022/12/07 13:22:31;;;;;;;0.73;0.40;;;;;;;;;;5081368;28;47000;-69
2022/12/07 13:24:59;;;;;;;1.17;0.57;;;;;;;;;;5083169;28;20536;-69
2022/12/07 13:27:27;;;;;;;0.68;0.38;;;;;;;;;;5066301;28;20060;-70
2022/12/07 13:29:56;;;;;;;1.45;0.40;;;;;;;;;;5062064;28;20506;-69
2022/12/07 13:32:31;;;;;;;2.10;0.77;;;;;;;;;;5062772;28;20049;-70
2022/12/07 13:34:57;;;;;;;2.97;0.70;;;;;;;;;;5047035;28;20140;-71
2022/12/07 13:37:26;;;;;;;4.90;1.48;;;;;;;;;;5062500;28;20060;-69
2022/12/07 13:39:54;;;;;;;1.25;0.80;;;;;;;;;;5069658;28;20053;-70
2022/12/07 13:42:27;;;;;;;3.22;1.00;;;;;;;;;;5046949;28;20053;-70
2022/12/07 13:44:54;;;;;;;7.07;1.83;;;;;;;;;;5060247;28;20048;-70
2022/12/07 13:47:41;;;;;;;5.95;1.73;;;;;;;;;;5062513;28;20136;-71
2022/12/07 13:50:23;;;;;;;5.07;1.77;;;;;;;;;;5047803;28;20103;-70
2022/12/07 13:52:50;;;;;;;6.40;1.67;;;;;;;;;;5064529;28;20041;-70
2022/12/07 13:55:17;;;;;;;2.67;1.50;;;;;;;;;;5056761;28;20045;-70
2022/12/07 13:57:44;;;;;;;5.38;1.80;;;;;;;;;;5078177;28;20055;-70
2022/12/07 14:00:15;;;;;;;5.90;1.33;;;;;;;;;;5061513;28;20065;-70
2022/12/07 14:02:54;;;;;;;2.80;1.20;;;;;;;;;;5070519;28;20506;-71
2022/12/07 14:05:24;;;;;;;1.23;1.05;;;;;;;;;;5085753;28;20106;-71
2022/12/07 14:08:01;;;;;;;4.10;1.00;;;;;;;;;;5065816;28;20492;-71
2022/12/07 14:10:31;;;;;;;3.72;1.08;;;;;;;;;;5067624;28;20523;-71
2022/12/07 14:12:58;;;;;;;3.28;1.33;;;;;;;;;;5080226;28;20095;-70
2022/12/07 14:15:29;;;;;;;4.80;1.30;;;;;;;;;;5075156;28;20060;-70
2022/12/07 14:17:55;;;;;;;4.90;1.42;;;;;;;;;;5077983;28;20059;-71
2022/12/07 14:20:36;;;;;;;9.60;1.52;;;;;;;;;;5074442;28;20057;-70
2022/12/07 14:23:08;;;;;;;5.07;1.30;;;;;;;;;;5051309;28;20108;-70
2022/12/07 14:25:51;;;;;;;4.70;1.13;;;;;;;;;;5066567;28;20580;-70
2022/12/07 14:28:26;;;;;;;4.07;1.38;;;;;;;;;;5064308;28;20511;-69
2022/12/07 14:30:53;;;;;;;1.70;1.02;;;;;;;;;;5062853;28;20538;-69
2022/12/07 14:33:20;;;;;;;3.10;1.25;;;;;;;;;;5055543;28;20850;-70
2022/12/07 14:35:47;;;;;;;2.92;1.83;;;;;;;;;;5067451;28;20501;-70
2022/12/07 14:38:13;;;;;;;4.95;0.80;;;;;;;;;;5063048;28;20144;-70
2022/12/07 14:40:39;;;;;;;4.85;1.20;;;;;;;;;;5069209;28;20056;-70
2022/12/07 14:43:11;;;;;;;5.28;1.20;;;;;;;;;;5056289;28;20060;-70
2022/12/07 14:45:39;;;;;;;4.93;1.38;;;;;;;;;;5063994;28;20523;-70
2022/12/07 14:48:07;;;;;;;11.25;1.77;;;;;;;;;;5064788;28;20049;-71
2022/12/07 14:50:54;;;;;;;3.28;1.42;;;;;;;;;;5064289;28;20469;-69
2022/12/07 14:53:43;;;;;;;2.05;1.50;;;;;;;;;;5066160;28;20041;-70
2022/12/07 14:56:13;;;;;;;6.60;1.77;;;;;;;;;;5074258;28;20072;-69
2022/12/07 14:58:40;;;;;;;3.80;1.42;;;;;;;;;;5070027;28;20055;-68
2022/12/07 15:01:06;;;;;;;3.20;1.08;;;;;;;;;;5078392;28;20053;-69
2022/12/07 15:03:34;;;;;;;3.38;1.25;;;;;;;;;;5072964;28;20134;-69
2022/12/07 15:06:01;;;;;;;2.50;1.00;;;;;;;;;;5078951;28;20607;-69